sensor_id;sensor_type;location;lat;lon;timestamp;pressure;altitude;pressure_sealevel;temperature;humidity
29433;BME280;16405;53.964;13.448;2023-01-29T00:02:01;102063.09;;;0.46;100.00
29433;BME280;16405;53.964;13.448;2023-01-29T00:04:39;102066.59;;;0.51;100.00
29433;BME280;16405;53.964;13.448;2023-01-29T00:07:39;102058.00;;;0.52;100.00
29433;BME280;16405;53.964;13.448;2023-01-29T00:13:16;102066.69;;;0.54;100.00
29433;BME280;16405;53.964;13.448;2023-01-29T00:15:55;102071.00;;;0.55;100.00
29433;BME280;16405;53.964;13.448;2023-01-29T00:18:30;102063.28;;;0.60;100.00
29433;BME280;16405;53.964;13.448;2023-01-29T00:20:59;102060.72;;;0.61;100.00
29433;BME280;16405;53.964;13.448;2023-01-29T00:23:34;102059.00;;;0.62;100.00
29433;BME280;16405;53.964;13.448;2023-01-29T00:25:59;102060.72;;;0.61;100.00
29433;BME280;16405;53.964;13.448;2023-01-29T00:28:25;102053.00;;;0.65;100.00
29433;BME280;16405;53.964;13.448;2023-01-29T00:30:51;102057.38;;;0.69;100.00
29433;BME280;16405;53.964;13.448;2023-01-29T00:33:17;102045.31;;;0.69;100.00
29433;BME280;16405;53.964;13.448;2023-01-29T00:35:48;102043.63;;;0.73;100.00
29433;BME280;16405;53.964;13.448;2023-01-29T00:38:14;102030.66;;;0.73;100.00
29433;BME280;16405;53.964;13.448;2023-01-29T00:40:40;102026.38;;;0.75;100.00
29433;BME280;16405;53.964;13.448;2023-01-29T00:43:28;102027.25;;;0.77;100.00
29433;BME280;16405;53.964;13.448;2023-01-29T00:46:12;102029.84;;;0.77;100.00
29433;BME280;16405;53.964;13.448;2023-01-29T00:48:38;102020.34;;;0.76;100.00
29433;BME280;16405;53.964;13.448;2023-01-29T00:51:04;102018.63;;;0.76;100.00
29433;BME280;16405;53.964;13.448;2023-01-29T00:53:30;102020.34;;;0.76;100.00
29433;BME280;16405;53.964;13.448;2023-01-29T00:55:56;102017.78;;;0.79;100.00
29433;BME280;16405;53.964;13.448;2023-01-29T00:58:29;102009.16;;;0.81;100.00
29433;BME280;16405;53.964;13.448;2023-01-29T01:01:00;102013.47;;;0.79;100.00
29433;BME280;16405;53.964;13.448;2023-01-29T01:03:32;102010.94;;;0.84;100.00
29433;BME280;16405;53.964;13.448;2023-01-29T01:06:08;102013.59;;;0.87;100.00
29433;BME280;16405;53.964;13.448;2023-01-29T01:08:37;102003.25;;;0.90;100.00
29433;BME280;16405;53.964;13.448;2023-01-29T01:11:21;102012.78;;;0.91;100.00
29433;BME280;16405;53.964;13.448;2023-01-29T01:13:47;102014.50;;;0.92;100.00
29433;BME280;16405;53.964;13.448;2023-01-29T01:16:17;102015.38;;;0.93;100.00
29433;BME280;16405;53.964;13.448;2023-01-29T01:18:45;102010.25;;;0.96;100.00
29433;BME280;16405;53.964;13.448;2023-01-29T01:21:11;102011.13;;;0.98;100.00
29433;BME280;16405;53.964;13.448;2023-01-29T01:23:36;102010.31;;;1.00;100.00
29433;BME280;16405;53.964;13.448;2023-01-29T01:26:08;102010.31;;;1.00;100.00
29433;BME280;16405;53.964;13.448;2023-01-29T01:28:35;102012.13;;;1.06;100.00
29433;BME280;16405;53.964;13.448;2023-01-29T01:31:09;102014.75;;;1.09;100.00
29433;BME280;16405;53.964;13.448;2023-01-29T01:33:43;102013.88;;;1.09;100.00
29433;BME280;16405;53.964;13.448;2023-01-29T01:36:08;102019.94;;;1.09;100.00
29433;BME280;16405;53.964;13.448;2023-01-29T01:38:38;102017.41;;;1.14;100.00
29433;BME280;16405;53.964;13.448;2023-01-29T01:41:20;102000.97;;;1.13;100.00
29433;BME280;16405;53.964;13.448;2023-01-29T01:43:58;101995.81;;;1.16;100.00
29433;BME280;16405;53.964;13.448;2023-01-29T01:46:33;101995.81;;;1.16;100.00
29433;BME280;16405;53.964;13.448;2023-01-29T01:49:15;101991.47;;;1.15;100.00
29433;BME280;16405;53.964;13.448;2023-01-29T01:51:47;101988.91;;;1.17;100.00
29433;BME280;16405;53.964;13.448;2023-01-29T01:54:23;101994.16;;;1.21;100.00
29433;BME280;16405;53.964;13.448;2023-01-29T01:57:12;101993.28;;;1.22;100.00
29433;BME280;16405;53.964;13.448;2023-01-29T01:59:55;101998.44;;;1.19;100.00
29433;BME280;16405;53.964;13.448;2023-01-29T02:02:28;101994.16;;;1.23;100.00
29433;BME280;16405;53.964;13.448;2023-01-29T02:05:13;101995.91;;;1.24;100.00
29433;BME280;16405;53.964;13.448;2023-01-29T02:08:04;101980.38;;;1.26;100.00
29433;BME280;16405;53.964;13.448;2023-01-29T02:10:49;101987.31;;;1.28;100.00
29433;BME280;16405;53.964;13.448;2023-01-29T02:13:15;101983.00;;;1.30;100.00
29433;BME280;16405;53.964;13.448;2023-01-29T02:15:51;101982.19;;;1.34;100.00
29433;BME280;16405;53.964;13.448;2023-01-29T02:18:20;101972.72;;;1.36;100.00
29433;BME280;16405;53.964;13.448;2023-01-29T02:21:55;101967.50;;;1.36;100.00
29433;BME280;16405;53.964;13.448;2023-01-29T02:29:10;101953.66;;;1.36;100.00
29433;BME280;16405;53.964;13.448;2023-01-29T02:37:32;101946.78;;;1.39;100.00
29433;BME280;16405;53.964;13.448;2023-01-29T02:43:36;101941.59;;;1.39;100.00
29433;BME280;16405;53.964;13.448;2023-01-29T02:49:15;101931.22;;;1.41;100.00
29433;BME280;16405;53.964;13.448;2023-01-29T02:52:02;101935.59;;;1.45;100.00
29433;BME280;16405;53.964;13.448;2023-01-29T02:57:36;101916.53;;;1.44;100.00
29433;BME280;16405;53.964;13.448;2023-01-29T03:00:22;101913.13;;;1.47;100.00
29433;BME280;16405;53.964;13.448;2023-01-29T03:03:16;101901.00;;;1.48;100.00
29433;BME280;16405;53.964;13.448;2023-01-29T03:06:31;101907.94;;;1.47;100.00
29433;BME280;16405;53.964;13.448;2023-01-29T03:09:21;101903.63;;;1.51;100.00
29433;BME280;16405;53.964;13.448;2023-01-29T03:11:53;101907.09;;;1.53;100.00
29433;BME280;16405;53.964;13.448;2023-01-29T03:14:34;101903.66;;;1.55;100.00
29433;BME280;16405;53.964;13.448;2023-01-29T03:17:24;101914.06;;;1.57;100.00
29433;BME280;16405;53.964;13.448;2023-01-29T03:19:51;101917.56;;;1.60;100.00
29433;BME280;16405;53.964;13.448;2023-01-29T03:22:19;101920.16;;;1.62;100.00
29433;BME280;16405;53.964;13.448;2023-01-29T03:24:57;101919.31;;;1.63;100.00
29433;BME280;16405;53.964;13.448;2023-01-29T03:27:56;101910.66;;;1.62;100.00
29433;BME280;16405;53.964;13.448;2023-01-29T03:30:56;101900.28;;;1.64;100.00
29433;BME280;16405;53.964;13.448;2023-01-29T03:36:54;101900.34;;;1.70;100.00
29433;BME280;16405;53.964;13.448;2023-01-29T03:39:21;101904.69;;;1.71;100.00
29433;BME280;16405;53.964;13.448;2023-01-29T03:44:59;101908.13;;;1.70;100.00
29433;BME280;16405;53.964;13.448;2023-01-29T03:50:45;101915.06;;;1.73;100.00
29433;BME280;16405;53.964;13.448;2023-01-29T03:59:13;101903.88;;;1.75;100.00
29433;BME280;16405;53.964;13.448;2023-01-29T04:01:50;101905.63;;;1.79;100.00
29433;BME280;16405;53.964;13.448;2023-01-29T04:04:34;101915.19;;;1.82;100.00
29433;BME280;16405;53.964;13.448;2023-01-29T04:07:16;101914.31;;;1.81;100.00
29433;BME280;16405;53.964;13.448;2023-01-29T04:09:57;101917.81;;;1.87;100.00
29433;BME280;16405;53.964;13.448;2023-01-29T04:12:29;101911.75;;;1.88;100.00
29433;BME280;16405;53.964;13.448;2023-01-29T04:15:01;101916.94;;;1.88;100.00
29433;BME280;16405;53.964;13.448;2023-01-29T04:17:38;101917.81;;;1.88;100.00
29433;BME280;16405;53.964;13.448;2023-01-29T04:20:06;101913.50;;;1.92;100.00
29433;BME280;16405;53.964;13.448;2023-01-29T04:22:35;101916.13;;;1.93;100.00
29433;BME280;16405;53.964;13.448;2023-01-29T04:25:09;101911.81;;;1.95;100.00
29433;BME280;16405;53.964;13.448;2023-01-29T04:28:29;101898.81;;;1.95;100.00
29433;BME280;16405;53.964;13.448;2023-01-29T04:31:13;101894.50;;;1.96;100.00
29433;BME280;16405;53.964;13.448;2023-01-29T04:36:58;101879.78;;;1.95;100.00
29433;BME280;16405;53.964;13.448;2023-01-29T04:39:42;101884.13;;;2.00;100.00
29433;BME280;16405;53.964;13.448;2023-01-29T04:42:49;101878.94;;;1.97;100.00
29433;BME280;16405;53.964;13.448;2023-01-29T04:48:16;101868.56;;;1.99;100.00
29433;BME280;16405;53.964;13.448;2023-01-29T04:51:12;101876.34;;;1.99;100.00
29433;BME280;16405;53.964;13.448;2023-01-29T04:59:44;101865.97;;;2.03;100.00
29433;BME280;16405;53.964;13.448;2023-01-29T05:02:13;101870.31;;;2.06;100.00
29433;BME280;16405;53.964;13.448;2023-01-29T05:04:40;101872.06;;;2.09;100.00
29433;BME280;16405;53.964;13.448;2023-01-29T05:07:18;101866.91;;;2.10;100.00
29433;BME280;16405;53.964;13.448;2023-01-29T05:09:45;101869.50;;;2.13;100.00
29433;BME280;16405;53.964;13.448;2023-01-29T05:12:18;101868.63;;;2.13;100.00
29433;BME280;16405;53.964;13.448;2023-01-29T05:14:45;101853.03;;;2.11;100.00
29433;BME280;16405;53.964;13.448;2023-01-29T05:17:16;101862.59;;;2.15;100.00
29433;BME280;16405;53.964;13.448;2023-01-29T05:19:54;101857.44;;;2.18;100.00
29433;BME280;16405;53.964;13.448;2023-01-29T05:22:20;101838.34;;;2.16;100.00
29433;BME280;16405;53.964;13.448;2023-01-29T05:24:52;101830.56;;;2.16;100.00
29433;BME280;16405;53.964;13.448;2023-01-29T05:27:24;101837.50;;;2.20;100.00
29433;BME280;16405;53.964;13.448;2023-01-29T05:30:12;101838.34;;;2.19;100.00
29433;BME280;16405;53.964;13.448;2023-01-29T05:32:38;101819.31;;;2.20;100.00
29433;BME280;16405;53.964;13.448;2023-01-29T05:35:05;101832.31;;;2.20;100.00
29433;BME280;16405;53.964;13.448;2023-01-29T05:37:30;101840.97;;;2.22;100.00
29433;BME280;16405;53.964;13.448;2023-01-29T05:39:56;101846.19;;;2.24;100.00
29433;BME280;16405;53.964;13.448;2023-01-29T05:42:22;101834.03;;;2.24;100.00
29433;BME280;16405;53.964;13.448;2023-01-29T05:44:57;101826.25;;;2.24;100.00
29433;BME280;16405;53.964;13.448;2023-01-29T05:47:23;101826.25;;;2.24;100.00
29433;BME280;16405;53.964;13.448;2023-01-29T05:49:49;101822.81;;;2.25;100.00
29433;BME280;16405;53.964;13.448;2023-01-29T05:52:17;101830.63;;;2.27;100.00
29433;BME280;16405;53.964;13.448;2023-01-29T05:54:45;101819.31;;;2.26;100.00
29433;BME280;16405;53.964;13.448;2023-01-29T05:57:14;101809.81;;;2.25;100.00
29433;BME280;16405;53.964;13.448;2023-01-29T05:59:40;101795.94;;;2.25;100.00
29433;BME280;16405;53.964;13.448;2023-01-29T06:02:05;101799.41;;;2.29;100.00
29433;BME280;16405;53.964;13.448;2023-01-29T06:04:38;101804.63;;;2.29;100.00
29433;BME280;16405;53.964;13.448;2023-01-29T06:07:04;101811.56;;;2.33;100.00
29433;BME280;16405;53.964;13.448;2023-01-29T06:09:30;101812.44;;;2.35;100.00
29433;BME280;16405;53.964;13.448;2023-01-29T06:11:56;101822.00;;;2.36;100.00
29433;BME280;16405;53.964;13.448;2023-01-29T06:14:31;101823.75;;;2.40;100.00
29433;BME280;16405;53.964;13.448;2023-01-29T06:16:57;101822.88;;;2.41;100.00
29433;BME280;16405;53.964;13.448;2023-01-29T06:19:23;101822.88;;;2.41;100.00
29433;BME280;16405;53.964;13.448;2023-01-29T06:21:48;101831.56;;;2.43;100.00
29433;BME280;16405;53.964;13.448;2023-01-29T06:24:23;101829.84;;;2.42;100.00
29433;BME280;16405;53.964;13.448;2023-01-29T06:26:49;101835.03;;;2.42;100.00
29433;BME280;16405;53.964;13.448;2023-01-29T06:29:26;101809.88;;;2.41;100.00
29433;BME280;16405;53.964;13.448;2023-01-29T06:31:52;101791.69;;;2.41;100.00
29433;BME280;16405;53.964;13.448;2023-01-29T06:34:20;101803.84;;;2.45;100.00
29433;BME280;16405;53.964;13.448;2023-01-29T06:36:53;101799.53;;;2.49;100.00
29433;BME280;16405;53.964;13.448;2023-01-29T06:39:18;101786.50;;;2.50;100.00
29433;BME280;16405;53.964;13.448;2023-01-29T06:41:44;101761.41;;;2.51;100.00
29433;BME280;16405;53.964;13.448;2023-01-29T06:44:11;101762.25;;;2.48;100.00
29433;BME280;16405;53.964;13.448;2023-01-29T06:46:36;101770.91;;;2.50;100.00
29433;BME280;16405;53.964;13.448;2023-01-29T06:49:04;101779.59;;;2.54;100.00
29433;BME280;16405;53.964;13.448;2023-01-29T06:51:33;101773.53;;;2.49;100.00
29433;BME280;16405;53.964;13.448;2023-01-29T06:53:59;101769.19;;;2.49;100.00
29433;BME280;16405;53.964;13.448;2023-01-29T06:56:24;101781.31;;;2.50;100.00
29433;BME280;16405;53.964;13.448;2023-01-29T06:58:50;101795.19;;;2.49;100.00
29433;BME280;16405;53.964;13.448;2023-01-29T07:01:16;101783.94;;;2.49;100.00
29433;BME280;16405;53.964;13.448;2023-01-29T07:03:42;101791.72;;;2.50;100.00
29433;BME280;16405;53.964;13.448;2023-01-29T07:06:15;101792.59;;;2.51;100.00
29433;BME280;16405;53.964;13.448;2023-01-29T07:08:41;101786.53;;;2.55;100.00
29433;BME280;16405;53.964;13.448;2023-01-29T07:11:07;101787.41;;;2.54;100.00
29433;BME280;16405;53.964;13.448;2023-01-29T07:13:33;101790.00;;;2.55;100.00
29433;BME280;16405;53.964;13.448;2023-01-29T07:16:05;101762.25;;;2.54;100.00
29433;BME280;16405;53.964;13.448;2023-01-29T07:18:31;101776.13;;;2.56;100.00
29433;BME280;16405;53.964;13.448;2023-01-29T07:20:57;101765.75;;;2.56;100.00
29433;BME280;16405;53.964;13.448;2023-01-29T07:23:23;101757.94;;;2.58;100.00
29433;BME280;16405;53.964;13.448;2023-01-29T07:25:53;101764.03;;;2.61;100.00
29433;BME280;16405;53.964;13.448;2023-01-29T07:28:21;101764.03;;;2.60;100.00
29433;BME280;16405;53.964;13.448;2023-01-29T07:30:47;101766.63;;;2.64;100.00
29433;BME280;16405;53.964;13.448;2023-01-29T07:33:13;101762.31;;;2.66;100.00
29433;BME280;16405;53.964;13.448;2023-01-29T07:35:41;101765.78;;;2.69;100.00
29433;BME280;16405;53.964;13.448;2023-01-29T07:38:17;101756.22;;;2.67;100.00
29433;BME280;16405;53.964;13.448;2023-01-29T07:40:43;101748.44;;;2.71;100.00
29433;BME280;16405;53.964;13.448;2023-01-29T07:43:12;101751.91;;;2.76;100.00
29433;BME280;16405;53.964;13.448;2023-01-29T07:45:40;101760.59;;;2.78;100.00
29433;BME280;16405;53.964;13.448;2023-01-29T07:48:09;101761.47;;;2.80;100.00
29433;BME280;16405;53.964;13.448;2023-01-29T07:50:37;101760.63;;;2.81;100.00
29433;BME280;16405;53.964;13.448;2023-01-29T07:53:14;101763.22;;;2.81;100.00
29433;BME280;16405;53.964;13.448;2023-01-29T07:55:45;101760.59;;;2.84;100.00
29433;BME280;16405;53.964;13.448;2023-01-29T07:58:13;101750.22;;;2.84;100.00
29433;BME280;16405;53.964;13.448;2023-01-29T08:00:39;101745.88;;;2.86;100.00
29433;BME280;16405;53.964;13.448;2023-01-29T08:03:10;101739.81;;;2.84;100.00
29433;BME280;16405;53.964;13.448;2023-01-29T08:05:46;101733.75;;;2.88;100.00
29433;BME280;16405;53.964;13.448;2023-01-29T08:08:20;101733.75;;;2.88;100.00
29433;BME280;16405;53.964;13.448;2023-01-29T08:10:49;101734.63;;;2.90;100.00
29433;BME280;16405;53.964;13.448;2023-01-29T08:13:15;101739.81;;;2.96;100.00
29433;BME280;16405;53.964;13.448;2023-01-29T08:15:49;101731.13;;;2.96;100.00
29433;BME280;16405;53.964;13.448;2023-01-29T08:18:15;101743.28;;;2.97;100.00
29433;BME280;16405;53.964;13.448;2023-01-29T08:20:40;101749.34;;;2.96;100.00
29433;BME280;16405;53.964;13.448;2023-01-29T08:23:13;101760.63;;;2.99;100.00
29433;BME280;16405;53.964;13.448;2023-01-29T08:25:42;101768.47;;;3.02;100.00
29433;BME280;16405;53.964;13.448;2023-01-29T08:28:11;101760.66;;;3.05;100.00
29433;BME280;16405;53.964;13.448;2023-01-29T08:30:38;101758.03;;;3.05;100.00
29433;BME280;16405;53.964;13.448;2023-01-29T08:33:09;101748.50;;;3.09;100.00
29433;BME280;16405;53.964;13.448;2023-01-29T08:35:36;101742.41;;;3.08;100.00
29433;BME280;16405;53.964;13.448;2023-01-29T08:38:11;101755.44;;;3.13;100.00
29433;BME280;16405;53.964;13.448;2023-01-29T08:40:37;101756.28;;;3.15;100.00
29433;BME280;16405;53.964;13.448;2023-01-29T08:43:06;101757.19;;;3.16;100.00
29433;BME280;16405;53.964;13.448;2023-01-29T08:45:37;101758.03;;;3.21;100.00
29433;BME280;16405;53.964;13.448;2023-01-29T08:48:05;101751.97;;;3.25;100.00
29433;BME280;16405;53.964;13.448;2023-01-29T08:50:31;101756.31;;;3.31;100.00
29433;BME280;16405;53.964;13.448;2023-01-29T08:53:01;101753.72;;;3.34;100.00
29433;BME280;16405;53.964;13.448;2023-01-29T08:55:39;101742.44;;;3.36;100.00
29433;BME280;16405;53.964;13.448;2023-01-29T08:58:11;101732.88;;;3.38;100.00
29433;BME280;16405;53.964;13.448;2023-01-29T09:00:40;101724.22;;;3.39;100.00
29433;BME280;16405;53.964;13.448;2023-01-29T09:03:07;101725.94;;;3.42;100.00
29433;BME280;16405;53.964;13.448;2023-01-29T09:05:38;101732.88;;;3.44;100.00
29433;BME280;16405;53.964;13.448;2023-01-29T09:08:08;101743.31;;;3.46;100.00
29433;BME280;16405;53.964;13.448;2023-01-29T09:10:35;101733.72;;;3.49;100.00
29433;BME280;16405;53.964;13.448;2023-01-29T09:13:13;101733.75;;;3.45;100.00
29433;BME280;16405;53.964;13.448;2023-01-29T09:15:39;101738.09;;;3.44;100.00
29433;BME280;16405;53.964;13.448;2023-01-29T09:18:09;101744.16;;;3.46;100.00
29433;BME280;16405;53.964;13.448;2023-01-29T09:20:37;101738.94;;;3.49;100.00
29433;BME280;16405;53.964;13.448;2023-01-29T09:23:07;101742.41;;;3.53;100.00
29433;BME280;16405;53.964;13.448;2023-01-29T09:25:41;101734.59;;;3.55;100.00
29433;BME280;16405;53.964;13.448;2023-01-29T09:28:07;101741.56;;;3.53;100.00
29433;BME280;16405;53.964;13.448;2023-01-29T09:30:36;101740.69;;;3.57;100.00
29433;BME280;16405;53.964;13.448;2023-01-29T09:33:12;101732.00;;;3.59;100.00
29433;BME280;16405;53.964;13.448;2023-01-29T09:35:50;101725.91;;;3.54;100.00
29433;BME280;16405;53.964;13.448;2023-01-29T09:38:22;101726.78;;;3.52;100.00
29433;BME280;16405;53.964;13.448;2023-01-29T09:41:42;101716.41;;;3.50;100.00
29433;BME280;16405;53.964;13.448;2023-01-29T09:44:46;101708.56;;;3.42;100.00
29433;BME280;16405;53.964;13.448;2023-01-29T09:47:17;101692.09;;;3.40;100.00
29433;BME280;16405;53.964;13.448;2023-01-29T09:49:51;101698.16;;;3.45;100.00
29433;BME280;16405;53.964;13.448;2023-01-29T09:52:34;101690.34;;;3.48;100.00
29433;BME280;16405;53.964;13.448;2023-01-29T09:55:30;101686.84;;;3.49;100.00
29433;BME280;16405;53.964;13.448;2023-01-29T09:57:59;101671.22;;;3.54;100.00
29433;BME280;16405;53.964;13.448;2023-01-29T10:01:02;101670.34;;;3.61;100.00
29433;BME280;16405;53.964;13.448;2023-01-29T10:07:13;101645.16;;;3.63;100.00
29433;BME280;16405;53.964;13.448;2023-01-29T10:16:53;101646.06;;;3.61;100.00
29433;BME280;16405;53.964;13.448;2023-01-29T10:22:44;101647.75;;;3.60;100.00
29433;BME280;16405;53.964;13.448;2023-01-29T10:25:18;101636.50;;;3.61;100.00
29433;BME280;16405;53.964;13.448;2023-01-29T10:27:56;101635.63;;;3.64;100.00
29433;BME280;16405;53.964;13.448;2023-01-29T10:30:45;101636.44;;;3.70;100.00
29433;BME280;16405;53.964;13.448;2023-01-29T10:33:22;101639.91;;;3.73;100.00
29433;BME280;16405;53.964;13.448;2023-01-29T10:36:03;101645.13;;;3.74;100.00
29433;BME280;16405;53.964;13.448;2023-01-29T10:38:49;101632.09;;;3.71;100.00
29433;BME280;16405;53.964;13.448;2023-01-29T10:44:42;101635.56;;;3.78;100.00
29433;BME280;16405;53.964;13.448;2023-01-29T11:01:59;101606.91;;;3.76;100.00
29433;BME280;16405;53.964;13.448;2023-01-29T11:04:34;101602.56;;;3.75;100.00
29433;BME280;16405;53.964;13.448;2023-01-29T11:07:01;101614.72;;;3.73;100.00
29433;BME280;16405;53.964;13.448;2023-01-29T11:09:38;101611.28;;;3.74;100.00
29433;BME280;16405;53.964;13.448;2023-01-29T11:12:26;101606.91;;;3.76;100.00
29433;BME280;16405;53.964;13.448;2023-01-29T11:15:21;101611.25;;;3.76;100.00
29433;BME280;16405;53.964;13.448;2023-01-29T11:18:15;101616.47;;;3.79;100.00
29433;BME280;16405;53.964;13.448;2023-01-29T11:20:44;101596.50;;;3.76;100.00
29433;BME280;16405;53.964;13.448;2023-01-29T11:23:33;101596.47;;;3.79;100.00
29433;BME280;16405;53.964;13.448;2023-01-29T11:26:02;101586.91;;;3.80;100.00
29433;BME280;16405;53.964;13.448;2023-01-29T11:28:46;101578.19;;;3.88;100.00
29433;BME280;16405;53.964;13.448;2023-01-29T11:31:35;101592.06;;;3.94;100.00
29433;BME280;16405;53.964;13.448;2023-01-29T11:34:21;101588.56;;;3.98;100.00
29433;BME280;16405;53.964;13.448;2023-01-29T11:37:02;101583.34;;;4.01;100.00
29433;BME280;16405;53.964;13.448;2023-01-29T11:39:37;101580.69;;;4.04;100.00
29433;BME280;16405;53.964;13.448;2023-01-29T11:42:22;101575.53;;;4.02;100.00
29433;BME280;16405;53.964;13.448;2023-01-29T11:44:55;101574.66;;;4.02;100.00
29433;BME280;16405;53.964;13.448;2023-01-29T11:47:34;101580.69;;;4.04;100.00
29433;BME280;16405;53.964;13.448;2023-01-29T11:50:04;101566.84;;;4.02;100.00
29433;BME280;16405;53.964;13.448;2023-01-29T11:52:43;101572.03;;;4.05;100.00
29433;BME280;16405;53.964;13.448;2023-01-29T11:55:22;101575.47;;;4.04;100.00
29433;BME280;16405;53.964;13.448;2023-01-29T12:00:39;101555.59;;;3.94;100.00
29433;BME280;16405;53.964;13.448;2023-01-29T12:03:27;101559.94;;;3.92;100.00
29433;BME280;16405;53.964;13.448;2023-01-29T12:08:58;101551.28;;;3.91;100.00
29433;BME280;16405;53.964;13.448;2023-01-29T12:11:33;101547.78;;;3.94;100.00
29433;BME280;16405;53.964;13.448;2023-01-29T12:14:03;101546.84;;;3.99;100.00
29433;BME280;16405;53.964;13.448;2023-01-29T12:17:00;101533.03;;;3.89;100.00
29433;BME280;16405;53.964;13.448;2023-01-29T12:22:37;101536.50;;;3.92;100.00
29433;BME280;16405;53.964;13.448;2023-01-29T12:30:46;101523.44;;;3.95;100.00
29433;BME280;16405;53.964;13.448;2023-01-29T12:36:25;101513.94;;;3.86;100.00
29433;BME280;16405;53.964;13.448;2023-01-29T12:38:58;101510.44;;;3.90;100.00
29433;BME280;16405;53.964;13.448;2023-01-29T12:41:41;101502.63;;;3.92;100.00
29433;BME280;16405;53.964;13.448;2023-01-29T12:44:24;101492.19;;;3.92;100.00
29433;BME280;16405;53.964;13.448;2023-01-29T12:46:55;101493.06;;;3.94;100.00
29433;BME280;16405;53.964;13.448;2023-01-29T12:49:30;101485.19;;;3.98;100.00
29433;BME280;16405;53.964;13.448;2023-01-29T12:57:22;101485.94;;;4.14;100.00
29433;BME280;16405;53.964;13.448;2023-01-29T13:00:04;101485.91;;;4.20;100.00
29433;BME280;16405;53.964;13.448;2023-01-29T13:02:35;101487.63;;;4.21;100.00
29433;BME280;16405;53.964;13.448;2023-01-29T13:05:18;101479.00;;;4.13;100.00
29433;BME280;16405;53.964;13.448;2023-01-29T13:10:49;101466.03;;;4.07;100.00
29433;BME280;16405;53.964;13.448;2023-01-29T13:13:30;101463.41;;;4.04;100.00
29433;BME280;16405;53.964;13.448;2023-01-29T13:16:11;101464.31;;;4.04;100.00
29433;BME280;16405;53.964;13.448;2023-01-29T13:19:01;101467.81;;;4.02;100.00
29433;BME280;16405;53.964;13.448;2023-01-29T13:21:38;101460.84;;;4.02;100.00
29433;BME280;16405;53.964;13.448;2023-01-29T13:24:16;101459.09;;;4.03;100.00
29433;BME280;16405;53.964;13.448;2023-01-29T13:26:47;101447.81;;;4.01;100.00
29433;BME280;16405;53.964;13.448;2023-01-29T13:29:24;101453.00;;;4.04;100.00
29433;BME280;16405;53.964;13.448;2023-01-29T13:31:54;101444.34;;;4.02;100.00
29433;BME280;16405;53.964;13.448;2023-01-29T13:34:30;101442.63;;;3.99;100.00
29433;BME280;16405;53.964;13.448;2023-01-29T13:37:01;101435.69;;;3.98;100.00
29433;BME280;16405;53.964;13.448;2023-01-29T13:39:35;101433.94;;;3.99;100.00
29433;BME280;16405;53.964;13.448;2023-01-29T13:45:33;101423.63;;;3.83;100.00
29433;BME280;16405;53.964;13.448;2023-01-29T13:48:28;101407.16;;;3.81;100.00
29433;BME280;16405;53.964;13.448;2023-01-29T13:51:03;101409.75;;;3.80;100.00
29433;BME280;16405;53.964;13.448;2023-01-29T13:53:41;101416.75;;;3.76;100.00
29433;BME280;16405;53.964;13.448;2023-01-29T13:59:04;101403.78;;;3.70;100.00
29433;BME280;16405;53.964;13.448;2023-01-29T14:02:01;101402.91;;;3.65;100.00
29433;BME280;16405;53.964;13.448;2023-01-29T14:04:38;101393.41;;;3.62;100.00
29433;BME280;16405;53.964;13.448;2023-01-29T14:07:48;101385.66;;;3.53;100.00
29433;BME280;16405;53.964;13.448;2023-01-29T14:10:19;101380.44;;;3.52;100.00
29433;BME280;16405;53.964;13.448;2023-01-29T14:12:48;101370.94;;;3.49;100.00
29433;BME280;16405;53.964;13.448;2023-01-29T14:15:20;101378.78;;;3.44;100.00
29433;BME280;16405;53.964;13.448;2023-01-29T14:18:17;101370.97;;;3.43;100.00
29433;BME280;16405;53.964;13.448;2023-01-29T14:20:53;101370.13;;;3.41;100.00
29433;BME280;16405;53.964;13.448;2023-01-29T14:23:53;101361.47;;;3.37;100.00
29433;BME280;16405;53.964;13.448;2023-01-29T14:26:30;101361.47;;;3.37;100.00
29433;BME280;16405;53.964;13.448;2023-01-29T14:29:16;101367.53;;;3.38;100.00
29433;BME280;16405;53.964;13.448;2023-01-29T14:34:31;101364.97;;;3.33;100.00
29433;BME280;16405;53.964;13.448;2023-01-29T14:39:49;101364.09;;;3.36;100.00
29433;BME280;16405;53.964;13.448;2023-01-29T14:42:28;101360.66;;;3.31;100.00
29433;BME280;16405;53.964;13.448;2023-01-29T14:45:28;101360.66;;;3.29;100.00
29433;BME280;16405;53.964;13.448;2023-01-29T14:53:14;101348.50;;;3.28;100.00
29433;BME280;16405;53.964;13.448;2023-01-29T14:59:00;101337.22;;;3.29;100.00
29433;BME280;16405;53.964;13.448;2023-01-29T15:01:35;101337.22;;;3.27;100.00
29433;BME280;16405;53.964;13.448;2023-01-29T15:06:45;101330.28;;;3.29;100.00
29433;BME280;16405;53.964;13.448;2023-01-29T15:15:37;101307.72;;;3.30;100.00
29433;BME280;16405;53.964;13.448;2023-01-29T15:18:08;101306.00;;;3.26;100.00
29433;BME280;16405;53.964;13.448;2023-01-29T15:20:40;101299.09;;;3.26;100.00
29433;BME280;16405;53.964;13.448;2023-01-29T15:23:29;101304.25;;;3.31;100.00
29433;BME280;16405;53.964;13.448;2023-01-29T15:26:23;101295.59;;;3.29;100.00
29433;BME280;16405;53.964;13.448;2023-01-29T15:28:59;101292.97;;;3.27;100.00
29433;BME280;16405;53.964;13.448;2023-01-29T15:31:28;101296.47;;;3.26;100.00
29433;BME280;16405;53.964;13.448;2023-01-29T15:33:59;101291.25;;;3.28;100.00
29433;BME280;16405;53.964;13.448;2023-01-29T15:36:39;101282.56;;;3.27;100.00
29433;BME280;16405;53.964;13.448;2023-01-29T15:39:14;101279.16;;;3.22;100.00